Terminal Aerodrome Forecast
Issued by NWS Memphis, TN

Home | Current Version | Previous Version | Text Only | Print | Product List | Glossary On
Versions: 1 2 3 4 5 6 7 8 9 10 11 12 13 14 15 16 17 18 19 20 21 22 23 24 25 26 27 28 29 30 31 32 33 34 35 36 37 38 39 40 41 42 43 44 45 46 47 48 49 50
000
FTUS44 KMEG 162112 AAA
TAFMEM
TAF AMD
KMEM 162112Z 1621/1724 20006KT P6SM BKN040 BKN200
     FM170300 18005KT P6SM OVC030
     FM170800 19008KT P6SM -SHRA FEW012 OVC020 WS020/23045KT
     FM171300 20011KT P6SM VCSH SCT009 OVC012
      TEMPO 1713/1717 6SM -DZ BR BKN009=

USA.gov is the U.S. government's official web portal to all federal, state and local government web resources and services.